Time;durP1;ratioP1;P1;durP2;ratioP2;P2;SDS_P1;SDS_P2;PMS_P1;PMS_P2;Temp;Humidity;BMP_temperature;BMP_pressure;BME280_temperature;BME280_humidity;BME280_pressure;Samples;Min_cycle;Max_cycle;Signal;HPM_P1;HPM_P2
2022/04/28 00:01:00;;;;;;;1.15;1.10;;;;;;;9.34;70.00;96526.41;4996172;28;20029;-66
2022/04/28 00:03:26;;;;;;;7.32;1.38;;;;;;;9.35;69.85;96522.06;4996269;28;20365;-64
2022/04/28 00:05:52;;;;;;;1.58;1.23;;;;;;;9.35;69.92;96515.09;4996258;28;20046;-63
2022/04/28 00:08:18;;;;;;;2.60;1.40;;;;;;;9.34;70.16;96521.19;4996220;28;20058;-63
2022/04/28 00:10:44;;;;;;;4.85;1.50;;;;;;;9.37;69.98;96517.66;4996134;28;20076;-64
2022/04/28 00:13:13;;;;;;;4.72;1.63;;;;;;;9.40;70.10;96519.31;4996096;28;20026;-66
2022/04/28 00:15:39;;;;;;;2.78;1.50;;;;;;;9.41;69.93;96521.00;4996093;28;20077;-63
2022/04/28 00:18:05;;;;;;;3.42;1.10;;;;;;;9.40;69.85;96521.91;4996112;28;20070;-65
2022/04/28 00:20:31;;;;;;;1.27;1.20;;;;;;;9.34;69.81;96518.59;4995883;28;20539;-66
2022/04/28 00:22:57;;;;;;;2.90;1.10;;;;;;;9.35;69.70;96519.44;4995812;28;20042;-66
2022/04/28 00:25:23;;;;;;;3.00;1.50;;;;;;;9.30;69.71;96514.38;4995881;28;20504;-66
2022/04/28 00:27:49;;;;;;;3.25;1.58;;;;;;;9.18;70.01;96520.03;4995738;28;20385;-66
2022/04/28 00:30:15;;;;;;;6.22;1.40;;;;;;;9.17;70.32;96513.06;4995732;28;20038;-66
2022/04/28 00:32:41;;;;;;;2.10;1.38;;;;;;;9.15;70.33;96504.47;4995727;28;20029;-62
2022/04/28 00:35:07;;;;;;;1.90;1.38;;;;;;;9.03;70.24;96511.78;4995651;28;20023;-64
2022/04/28 00:37:32;;;;;;;1.85;1.25;;;;;;;8.96;70.80;96502.44;4995636;28;20504;-65
2022/04/28 00:39:58;;;;;;;3.30;1.60;;;;;;;8.95;71.04;96509.44;4995567;28;20106;-65
2022/04/28 00:42:24;;;;;;;4.43;1.20;;;;;;;8.95;70.82;96504.22;4995410;28;20053;-66
2022/04/28 00:44:49;;;;;;;3.72;1.50;;;;;;;8.96;71.27;96512.88;4995557;28;20029;-64
2022/04/28 00:47:15;;;;;;;3.15;1.40;;;;;;;8.95;71.26;96519.00;4995431;28;20500;-67
2022/04/28 00:52:28;;;;;;;2.15;1.30;;;;;;;8.80;71.20;96525.56;4995751;28;20037;-63
2022/04/28 00:54:54;;;;;;;2.80;1.30;;;;;;;8.73;71.48;96511.84;4995411;28;20034;-66
2022/04/28 00:57:21;;;;;;;1.05;0.93;;;;;;;8.77;71.38;96513.47;4995359;28;20026;-65
2022/04/28 00:59:48;;;;;;;1.85;1.55;;;;;;;8.71;71.60;96511.06;4995208;28;20026;-67
2022/04/28 01:02:17;;;;;;;3.75;1.10;;;;;;;8.71;71.13;96508.44;4995064;28;20038;-63
2022/04/28 01:04:42;;;;;;;2.38;0.82;;;;;;;8.66;71.28;96502.50;4995299;28;20113;-65
2022/04/28 01:07:08;;;;;;;4.05;1.63;;;;;;;8.66;71.64;96500.75;4995032;28;20057;-64
2022/04/28 01:09:36;;;;;;;3.22;1.35;;;;;;;8.64;71.40;96505.16;4995182;28;20097;-67
2022/04/28 01:12:15;;;;;;;2.40;1.40;;;;;;;8.62;71.64;96498.28;4995046;28;20057;-65
2022/04/28 01:14:45;;;;;;;3.10;1.90;;;;;;;8.54;71.88;96498.50;4994954;28;20045;-64
2022/04/28 01:17:11;;;;;;;3.77;2.10;;;;;;;8.54;71.91;96494.16;4994775;28;20026;-67
2022/04/28 01:19:37;;;;;;;2.13;1.63;;;;;;;8.50;71.89;96495.13;4994827;28;20056;-64
2022/04/28 01:22:04;;;;;;;1.60;1.50;;;;;;;8.51;71.96;96502.03;4994766;28;20354;-65
2022/04/28 01:24:31;;;;;;;5.75;1.60;;;;;;;8.45;72.07;96502.22;4994660;28;20025;-66
2022/04/28 01:26:59;;;;;;;1.50;1.40;;;;;;;8.44;71.86;96503.13;4994631;28;20058;-66
2022/04/28 01:29:25;;;;;;;2.35;1.50;;;;;;;8.36;72.40;96505.13;4994609;28;20030;-66
2022/04/28 01:31:50;;;;;;;4.68;1.48;;;;;;;8.33;72.45;96506.91;4994522;28;20101;-66
2022/04/28 01:34:16;;;;;;;5.18;1.30;;;;;;;8.36;72.70;96500.75;4994610;28;20045;-64
2022/04/28 01:36:42;;;;;;;1.63;1.20;;;;;;;8.27;72.24;96494.06;4994529;28;20034;-65
2022/04/28 01:39:09;;;;;;;1.73;1.35;;;;;;;8.12;73.46;96489.31;4994411;28;20026;-64
2022/04/28 01:41:34;;;;;;;2.67;1.50;;;;;;;8.15;73.77;96497.88;4994039;28;20054;-65
2022/04/28 01:44:01;;;;;;;4.78;1.75;;;;;;;8.08;73.72;96497.22;4994435;28;20027;-66
2022/04/28 01:46:28;;;;;;;4.95;1.60;;;;;;;8.06;73.40;96492.94;4994351;28;20026;-67
2022/04/28 01:48:53;;;;;;;3.53;1.52;;;;;;;8.05;73.25;96499.91;4994317;28;20026;-66
2022/04/28 01:56:47;;;;;;;2.70;1.30;;;;;;;7.96;73.90;96505.38;4994231;28;20405;-67
2022/04/28 01:59:12;;;;;;;6.20;1.40;;;;;;;7.98;73.66;96503.59;4994165;28;20026;-65
2022/04/28 02:01:38;;;;;;;3.88;1.45;;;;;;;8.02;73.47;96509.53;4993913;28;20520;-67
2022/04/28 02:04:03;;;;;;;2.33;1.30;;;;;;;8.06;73.01;96498.13;4993972;28;20026;-66
2022/04/28 02:06:29;;;;;;;5.90;1.30;;;;;;;8.09;73.29;96498.91;4994310;28;20022;-65
2022/04/28 02:08:55;;;;;;;2.00;1.48;;;;;;;8.13;73.37;96498.84;4976777;28;20034;-65
2022/04/28 02:11:21;;;;;;;1.58;1.45;;;;;;;8.13;73.44;96498.84;4993729;28;20499;-66
2022/04/28 02:13:46;;;;;;;2.72;1.50;;;;;;;8.15;73.21;96497.00;4993912;28;20018;-64
2022/04/28 02:16:12;;;;;;;3.17;1.42;;;;;;;8.14;72.83;96496.19;4993846;28;20400;-66
2022/04/28 02:18:37;;;;;;;2.90;1.40;;;;;;;8.11;73.09;96503.22;4993798;28;20030;-64
2022/04/28 02:21:03;;;;;;;2.30;1.20;;;;;;;8.05;72.74;96499.91;4993898;28;20022;-65
2022/04/28 02:23:29;;;;;;;2.35;1.33;;;;;;;8.00;72.96;96498.34;4993729;28;20465;-65
2022/04/28 02:25:54;;;;;;;6.72;1.90;;;;;;;8.00;73.12;96499.16;4993736;28;20035;-64
2022/04/28 02:28:20;;;;;;;2.67;1.70;;;;;;;7.97;73.46;96496.66;4976209;28;20027;-65
2022/04/28 02:30:45;;;;;;;3.00;1.50;;;;;;;7.95;73.58;96499.28;4993842;28;20014;-66
2022/04/28 02:33:11;;;;;;;1.42;1.30;;;;;;;7.94;73.79;96495.00;4993768;28;20026;-66
2022/04/28 02:35:40;;;;;;;1.75;1.30;;;;;;;7.89;73.73;96496.84;4993710;28;20029;-67
2022/04/28 02:38:06;;;;;;;5.15;1.38;;;;;;;7.88;73.78;96500.38;4993775;28;20031;-67
2022/04/28 02:40:32;;;;;;;3.28;1.35;;;;;;;7.90;73.53;96498.59;4993571;28;20113;-65
2022/04/28 02:42:59;;;;;;;1.75;1.50;;;;;;;7.89;73.25;96496.03;4993644;28;20041;-63
2022/04/28 02:45:25;;;;;;;3.42;1.48;;;;;;;7.88;73.07;96504.72;4993523;28;20384;-64
2022/04/28 02:47:51;;;;;;;2.25;1.60;;;;;;;7.88;73.23;96499.50;4993663;28;20094;-64
2022/04/28 02:50:17;;;;;;;2.38;1.58;;;;;;;7.86;73.59;96503.91;4993565;28;20091;-65
2022/04/28 02:52:42;;;;;;;1.83;1.55;;;;;;;7.79;73.48;96500.63;4993529;28;20035;-67
2022/04/28 02:55:09;;;;;;;4.88;1.60;;;;;;;7.68;74.52;96508.75;4993562;28;20130;-64
2022/04/28 02:57:35;;;;;;;5.75;1.80;;;;;;;7.70;75.16;96506.94;4993581;28;20477;-64
2022/04/28 03:00:04;;;;;;;1.88;1.60;;;;;;;7.68;76.05;96509.56;4993562;28;20102;-66
2022/04/28 03:02:30;;;;;;;6.85;1.83;;;;;;;7.61;75.84;96507.19;4993482;28;20124;-63
2022/04/28 03:04:56;;;;;;;4.88;1.77;;;;;;;7.62;76.50;96519.31;4993317;28;20404;-66
2022/04/28 03:12:51;;;;;;;2.03;1.83;;;;;;;7.75;76.10;96519.84;4993678;28;20032;-66
2022/04/28 03:15:17;;;;;;;5.43;1.70;;;;;;;7.78;76.38;96517.16;4993316;28;20033;-64
2022/04/28 03:17:44;;;;;;;2.05;1.80;;;;;;;7.81;76.02;96512.72;4993300;28;20049;-67
2022/04/28 03:20:10;;;;;;;3.65;1.90;;;;;;;7.79;76.14;96513.63;4993384;28;20029;-65
2022/04/28 03:22:36;;;;;;;2.65;1.90;;;;;;;7.79;75.83;96517.09;4993414;28;20051;-65
2022/04/28 03:25:05;;;;;;;2.08;1.52;;;;;;;7.75;75.64;96520.69;4979421;28;20027;-64
2022/04/28 03:27:33;;;;;;;5.63;2.00;;;;;;;7.69;75.61;96513.91;4997009;28;20463;-65
2022/04/28 03:29:59;;;;;;;2.10;1.90;;;;;;;7.66;76.33;96520.94;4996775;28;20026;-67
2022/04/28 03:32:25;;;;;;;3.22;1.70;;;;;;;7.55;78.10;96521.22;4996824;28;20030;-67
2022/04/28 03:34:50;;;;;;;4.18;2.25;;;;;;;7.70;78.30;96526.03;4996790;28;20029;-65
2022/04/28 03:37:16;;;;;;;3.25;1.95;;;;;;;7.76;77.10;96534.56;4996721;28;20073;-64
2022/04/28 03:39:41;;;;;;;1.80;1.70;;;;;;;7.79;76.66;96526.66;4996600;28;20022;-67
2022/04/28 03:42:07;;;;;;;2.13;1.92;;;;;;;7.75;77.66;96535.44;4996425;28;20054;-63
2022/04/28 03:44:34;;;;;;;4.40;1.92;;;;;;;7.79;77.93;96543.16;4996682;28;20030;-64
2022/04/28 03:47:01;;;;;;;2.13;1.98;;;;;;;7.92;78.11;96546.25;4996521;28;20030;-65
2022/04/28 03:49:27;;;;;;;4.65;1.70;;;;;;;7.93;77.90;96549.75;4996587;28;20108;-67
2022/04/28 03:51:52;;;;;;;4.93;2.03;;;;;;;7.99;77.65;96549.56;4996497;28;20066;-65
2022/04/28 03:54:18;;;;;;;2.30;2.10;;;;;;;8.08;77.27;96551.94;4996461;28;20096;-64
2022/04/28 03:56:44;;;;;;;2.88;1.73;;;;;;;8.26;76.54;96554.03;4996432;28;20014;-64
2022/04/28 03:59:10;;;;;;;4.65;1.83;;;;;;;8.33;76.55;96553.84;4996386;28;20085;-65
2022/04/28 04:01:35;;;;;;;5.13;1.63;;;;;;;8.45;76.63;96555.22;4996225;28;20030;-64
2022/04/28 04:04:01;;;;;;;3.70;1.60;;;;;;;8.63;76.29;96555.59;4996234;28;20358;-64
2022/04/28 04:06:27;;;;;;;3.03;1.30;;;;;;;8.89;75.83;96558.31;4996248;28;20027;-67
2022/04/28 04:08:52;;;;;;;3.03;1.70;;;;;;;9.12;75.24;96559.38;4996211;28;20026;-67
2022/04/28 04:11:18;;;;;;;2.53;1.45;;;;;;;9.29;74.53;96554.44;4996081;28;20026;-64
2022/04/28 04:13:45;;;;;;;4.88;2.25;;;;;;;9.57;73.96;96563.13;4996112;28;20103;-65
2022/04/28 04:16:11;;;;;;;3.75;1.73;;;;;;;9.94;73.35;96554.00;4995940;28;20031;-66
2022/04/28 04:18:37;;;;;;;2.50;1.38;;;;;;;10.42;72.43;96558.44;4995998;28;20444;-62
2022/04/28 04:21:03;;;;;;;1.60;1.50;;;;;;;10.74;71.00;96556.38;4996000;28;20022;-64
2022/04/28 04:23:29;;;;;;;5.25;1.65;;;;;;;11.06;70.41;96566.53;4995854;28;20034;-64
2022/04/28 04:25:56;;;;;;;1.65;1.52;;;;;;;11.46;69.66;96566.66;4995798;28;20048;-66
2022/04/28 04:28:22;;;;;;;1.85;1.30;;;;;;;11.98;69.40;96560.16;4995837;28;20046;-64
2022/04/28 04:33:32;;;;;;;5.80;1.33;;;;;;;12.84;67.05;96559.00;4996034;28;20165;-64
2022/04/28 04:35:58;;;;;;;2.38;1.35;;;;;;;12.95;67.18;96564.59;4995474;28;20396;-62
2022/04/28 04:38:23;;;;;;;3.85;1.17;;;;;;;12.95;66.22;96566.38;4995591;28;20032;-63
2022/04/28 04:40:50;;;;;;;1.70;1.20;;;;;;;12.95;65.51;96569.00;4995458;28;20057;-67
2022/04/28 04:43:15;;;;;;;2.47;1.33;;;;;;;12.95;65.97;96566.38;4978089;28;20066;-67
2022/04/28 04:45:42;;;;;;;3.25;1.50;;;;;;;12.95;65.78;96572.50;4995386;28;20104;-63
2022/04/28 04:48:11;;;;;;;1.55;1.20;;;;;;;12.87;67.12;96566.72;4995598;28;20022;-63
2022/04/28 04:50:38;;;;;;;7.00;1.67;;;;;;;12.83;67.45;96567.78;4995464;28;20027;-64
2022/04/28 04:53:05;;;;;;;4.28;1.63;;;;;;;12.74;66.29;96563.84;4995483;28;20105;-66
2022/04/28 04:55:38;;;;;;;3.33;1.52;;;;;;;12.80;66.43;96567.94;4995223;28;20034;-63
2022/04/28 04:58:05;;;;;;;2.67;1.42;;;;;;;12.89;65.83;96573.59;4995442;28;20034;-66
2022/04/28 05:00:34;;;;;;;3.35;1.45;;;;;;;13.01;66.02;96569.53;4995224;28;20019;-64
2022/04/28 05:02:59;;;;;;;2.33;1.70;;;;;;;13.11;65.14;96575.22;4995083;28;20400;-66
2022/04/28 05:05:25;;;;;;;2.40;1.73;;;;;;;13.19;65.24;96580.13;4995071;28;20081;-67
2022/04/28 05:07:50;;;;;;;2.58;1.55;;;;;;;13.27;65.05;96582.34;4995172;28;20026;-65
2022/04/28 05:10:16;;;;;;;2.95;1.60;;;;;;;13.29;64.41;96583.16;4995145;28;20468;-65
2022/04/28 05:12:41;;;;;;;2.50;1.65;;;;;;;13.35;63.41;96572.34;4977457;28;20026;-66
2022/04/28 05:15:07;;;;;;;4.25;1.45;;;;;;;13.39;62.73;96579.13;4994917;28;20029;-67
2022/04/28 05:17:35;;;;;;;3.13;1.60;;;;;;;13.47;62.57;96578.78;4994821;28;20507;-66
2022/04/28 05:20:01;;;;;;;3.72;2.28;;;;;;;13.52;62.72;96576.78;4994789;28;20487;-66
2022/04/28 05:22:26;;;;;;;1.42;1.33;;;;;;;13.65;62.74;96584.06;4994601;28;20105;-63
2022/04/28 05:24:52;;;;;;;1.55;1.45;;;;;;;13.80;63.29;96586.84;4994833;28;20045;-66
2022/04/28 05:27:18;;;;;;;3.13;1.83;;;;;;;14.25;63.37;96587.22;4994773;28;20026;-64
2022/04/28 05:29:43;;;;;;;4.57;1.40;;;;;;;14.81;62.96;96586.91;4994587;28;20026;-65
2022/04/28 05:32:09;;;;;;;1.50;1.40;;;;;;;15.13;60.24;96586.06;4994578;28;20030;-64
2022/04/28 05:34:34;;;;;;;3.35;1.33;;;;;;;15.44;59.14;96592.25;4994685;28;20026;-61
2022/04/28 05:37:01;;;;;;;4.80;1.90;;;;;;;15.76;56.64;96591.34;4994543;28;20112;-65
2022/04/28 05:39:28;;;;;;;1.95;1.40;;;;;;;16.14;55.06;96592.69;4994515;28;20030;-65
2022/04/28 05:41:55;;;;;;;1.55;1.17;;;;;;;16.42;53.95;96591.03;4994280;28;20531;-65
2022/04/28 05:47:06;;;;;;;4.03;1.27;;;;;;;16.88;54.95;96600.53;4994029;28;20041;-65
2022/04/28 05:49:33;;;;;;;5.07;1.58;;;;;;;17.14;55.09;96603.34;4994304;28;20030;-63
2022/04/28 05:51:59;;;;;;;2.13;1.50;;;;;;;17.45;53.45;96611.09;4994160;28;20048;-62
2022/04/28 05:54:24;;;;;;;7.50;1.55;;;;;;;17.65;52.44;96599.22;4994231;28;20093;-62
2022/04/28 05:56:50;;;;;;;27.15;1.90;;;;;;;17.87;51.84;96603.06;4994270;28;20105;-61
2022/04/28 05:59:16;;;;;;;2.22;1.30;;;;;;;17.85;50.87;96610.25;4994182;28;20033;-64
2022/04/28 06:01:42;;;;;;;2.58;1.50;;;;;;;17.97;51.15;96603.28;4994036;28;20019;-65
2022/04/28 06:04:08;;;;;;;2.08;1.30;;;;;;;18.30;51.45;96609.94;4993977;28;20024;-62
2022/04/28 06:06:34;;;;;;;7.03;1.42;;;;;;;18.67;49.91;96618.97;4993983;28;20401;-65
2022/04/28 06:08:59;;;;;;;1.52;1.30;;;;;;;18.76;50.08;96613.03;4994029;28;20105;-65
2022/04/28 06:11:25;;;;;;;2.03;1.42;;;;;;;18.86;50.14;96623.81;4993987;28;20030;-63
2022/04/28 06:13:51;;;;;;;5.05;1.30;;;;;;;18.91;49.54;96619.00;4994099;28;20014;-63
2022/04/28 06:16:16;;;;;;;7.18;1.48;;;;;;;18.97;49.74;96622.19;4993883;28;20037;-65
2022/04/28 06:18:42;;;;;;;5.07;1.40;;;;;;;18.80;49.85;96626.88;4993930;28;20473;-63
2022/04/28 06:21:07;;;;;;;4.90;1.70;;;;;;;19.02;49.29;96622.72;4993801;28;20046;-65
2022/04/28 06:23:33;;;;;;;3.35;1.30;;;;;;;19.13;49.82;96625.47;4993699;28;20031;-64
2022/04/28 06:26:00;;;;;;;2.28;1.48;;;;;;;19.31;49.21;96627.75;4993834;28;20022;-63
2022/04/28 06:28:26;;;;;;;5.43;1.67;;;;;;;19.38;49.26;96631.66;4993782;28;20417;-65
2022/04/28 06:30:52;;;;;;;2.80;1.48;;;;;;;19.51;48.44;96636.09;4993639;28;20029;-63
2022/04/28 06:33:19;;;;;;;1.98;1.40;;;;;;;19.65;47.77;96638.56;4993624;28;20019;-64
2022/04/28 06:35:45;;;;;;;3.67;1.58;;;;;;;19.65;47.17;96633.25;4993675;28;20030;-66
2022/04/28 06:38:11;;;;;;;3.55;1.42;;;;;;;19.76;48.46;96642.22;4993902;28;20037;-62
2022/04/28 06:40:37;;;;;;;2.50;1.60;;;;;;;19.84;49.47;96639.88;4993411;28;20388;-62
2022/04/28 06:43:02;;;;;;;1.65;1.55;;;;;;;20.03;47.40;96643.81;4993806;28;20038;-63
2022/04/28 06:45:28;;;;;;;9.13;1.55;;;;;;;20.10;45.19;96641.56;4993778;28;20037;-63
2022/04/28 06:47:55;;;;;;;4.72;1.40;;;;;;;19.87;43.51;96647.56;4993622;28;20022;-63
2022/04/28 06:50:22;;;;;;;2.65;1.27;;;;;;;19.78;45.17;96645.63;4993622;28;20051;-62
2022/04/28 06:52:48;;;;;;;3.17;1.50;;;;;;;19.79;44.36;96649.97;4993543;28;20022;-62
2022/04/28 06:55:13;;;;;;;4.22;1.52;;;;;;;19.89;44.00;96642.16;4993487;28;20037;-64
2022/04/28 06:57:39;;;;;;;2.33;1.17;;;;;;;20.16;44.08;96644.59;4995058;28;20117;-62
2022/04/28 07:00:07;;;;;;;6.18;1.52;;;;;;;20.44;42.27;96639.00;4997400;28;20068;-63
2022/04/28 07:02:33;;;;;;;2.38;1.33;;;;;;;20.51;43.57;96645.53;4997214;28;20069;-63
2022/04/28 07:04:59;;;;;;;3.40;1.70;;;;;;;20.69;43.90;96647.72;4997411;28;20414;-65
2022/04/28 07:07:25;;;;;;;6.15;1.45;;;;;;;20.77;42.94;96645.28;4997346;28;20477;-65
2022/04/28 07:09:51;;;;;;;3.65;1.63;;;;;;;20.71;44.93;96646.63;4997291;28;20031;-63
2022/04/28 07:12:16;;;;;;;1.73;1.48;;;;;;;20.83;44.09;96651.97;4997036;28;20022;-64
2022/04/28 07:14:43;;;;;;;2.42;1.77;;;;;;;20.65;43.18;96655.06;4997261;28;20384;-63
2022/04/28 07:17:10;;;;;;;2.45;1.45;;;;;;;20.58;43.88;96648.53;4997128;28;20041;-64
2022/04/28 07:19:35;;;;;;;3.03;1.63;;;;;;;20.63;44.32;96656.16;4997010;28;20027;-63
2022/04/28 07:22:05;;;;;;;5.05;1.40;;;;;;;20.75;43.62;96651.69;4996854;28;20029;-64
2022/04/28 07:24:31;;;;;;;5.45;1.30;;;;;;;20.81;42.17;96652.09;4997140;28;20027;-62
2022/04/28 07:26:58;;;;;;;2.60;1.48;;;;;;;20.99;42.25;96646.31;4997015;28;20027;-63
2022/04/28 07:29:23;;;;;;;4.88;2.63;;;;;;;20.98;41.91;96641.94;4996801;28;20018;-63
2022/04/28 07:31:50;;;;;;;4.50;1.77;;;;;;;20.93;41.36;96644.13;4996796;28;20033;-64
2022/04/28 07:34:16;;;;;;;6.07;1.67;;;;;;;20.74;42.28;96650.03;4996823;28;20385;-62
2022/04/28 07:36:42;;;;;;;5.35;1.70;;;;;;;20.70;42.01;96647.59;4996706;28;20153;-66
2022/04/28 07:39:08;;;;;;;4.07;1.58;;;;;;;20.41;41.55;96648.03;4996802;28;20443;-64
2022/04/28 07:41:33;;;;;;;4.25;2.33;;;;;;;20.29;45.34;96654.28;4996309;28;20054;-66
2022/04/28 07:43:59;;;;;;;7.72;2.70;;;;;;;20.04;46.52;96646.34;4996629;28;20026;-67
2022/04/28 07:46:25;;;;;;;8.38;2.53;;;;;;;19.81;47.27;96658.66;4996580;28;20035;-63
2022/04/28 07:48:51;;;;;;;5.47;2.50;;;;;;;19.52;47.88;96643.94;4996482;28;20022;-65
2022/04/28 07:51:16;;;;;;;9.57;2.97;;;;;;;19.61;50.00;96652.16;4996627;28;20120;-66
2022/04/28 07:53:42;;;;;;;4.57;2.58;;;;;;;19.64;50.31;96652.78;4996450;28;20393;-67
2022/04/28 07:56:12;;;;;;;7.47;2.20;;;;;;;19.51;49.23;96650.16;4996287;28;20559;-65
2022/04/28 07:58:38;;;;;;;3.92;2.55;;;;;;;19.42;49.13;96645.56;4996383;28;20030;-63
2022/04/28 08:01:05;;;;;;;4.90;2.63;;;;;;;19.31;49.38;96648.97;4996246;28;20057;-66
2022/04/28 08:03:31;;;;;;;6.82;3.05;;;;;;;19.27;50.22;96632.44;4996222;28;20058;-64
2022/04/28 08:05:57;;;;;;;5.00;3.05;;;;;;;18.97;51.29;96646.03;4996245;28;20517;-64
2022/04/28 08:08:23;;;;;;;6.75;3.30;;;;;;;18.84;52.01;96644.25;4995884;28;20042;-66
2022/04/28 08:10:49;;;;;;;6.47;3.30;;;;;;;18.94;51.49;96647.13;4995697;28;20473;-63
2022/04/28 08:13:15;;;;;;;4.70;3.03;;;;;;;19.01;52.36;96643.06;4996248;28;20097;-63
2022/04/28 08:15:41;;;;;;;5.05;3.45;;;;;;;19.08;53.08;96648.81;4996078;28;20029;-66
2022/04/28 08:18:08;;;;;;;7.43;3.17;;;;;;;19.01;52.32;96648.38;4996212;28;20022;-66
2022/04/28 08:20:33;;;;;;;10.00;3.30;;;;;;;18.96;52.46;96650.50;4996006;28;20053;-66
2022/04/28 08:22:59;;;;;;;7.88;3.00;;;;;;;18.74;53.33;96653.78;4995798;28;20038;-66
2022/04/28 08:25:25;;;;;;;10.98;3.55;;;;;;;18.81;53.65;96655.91;4995924;28;20019;-66
2022/04/28 08:27:50;;;;;;;4.45;3.45;;;;;;;19.07;54.23;96649.75;4995836;28;20093;-66
2022/04/28 08:30:16;;;;;;;3.55;2.85;;;;;;;19.26;52.61;96651.13;4995883;28;20547;-63
2022/04/28 08:32:42;;;;;;;3.90;3.15;;;;;;;19.24;51.34;96653.03;4995701;28;20034;-62
2022/04/28 08:35:08;;;;;;;5.82;3.00;;;;;;;19.43;52.17;96647.25;4995724;28;20029;-66
2022/04/28 08:37:34;;;;;;;6.78;4.45;;;;;;;19.56;52.31;96653.34;4995568;28;20080;-66
2022/04/28 08:39:59;;;;;;;6.53;3.22;;;;;;;19.71;51.11;96653.19;4995537;28;20027;-62
2022/04/28 08:42:27;;;;;;;5.10;2.80;;;;;;;19.83;52.26;96657.59;4995365;28;20112;-64
2022/04/28 08:44:59;;;;;;;7.53;3.08;;;;;;;20.10;50.54;96662.81;4995576;28;20035;-66
2022/04/28 08:47:25;;;;;;;4.78;2.67;;;;;;;20.38;50.08;96648.25;4995449;28;20026;-63
2022/04/28 08:49:51;;;;;;;4.80;3.05;;;;;;;20.63;49.42;96654.34;4995422;28;20045;-62
2022/04/28 08:52:18;;;;;;;3.65;2.83;;;;;;;20.56;48.90;96653.16;4995520;28;20481;-62
2022/04/28 08:54:45;;;;;;;6.22;2.90;;;;;;;20.58;49.63;96648.53;4995376;28;20042;-63
2022/04/28 08:57:13;;;;;;;6.68;3.00;;;;;;;20.56;49.74;96653.97;4995314;28;20030;-63
2022/04/28 08:59:40;;;;;;;5.60;2.78;;;;;;;20.75;49.30;96652.56;4995305;28;20029;-65
2022/04/28 09:02:07;;;;;;;5.68;2.70;;;;;;;20.78;47.68;96652.31;4995136;28;20026;-63
2022/04/28 09:04:33;;;;;;;4.60;2.70;;;;;;;21.03;47.71;96650.41;4995101;28;20573;-65
2022/04/28 09:06:59;;;;;;;5.65;2.53;;;;;;;21.18;47.66;96644.84;4995100;28;20019;-65
2022/04/28 09:09:27;;;;;;;5.63;2.78;;;;;;;21.31;48.61;96636.75;4994930;28;20061;-65
2022/04/28 09:11:58;;;;;;;6.03;2.65;;;;;;;21.26;47.91;96639.75;4995174;28;20038;-65
2022/04/28 09:14:24;;;;;;;5.00;2.60;;;;;;;21.45;47.14;96633.81;4995022;28;20388;-64
2022/04/28 09:17:03;;;;;;;6.15;2.58;;;;;;;21.61;46.68;96639.69;4994769;28;20042;-64
2022/04/28 09:19:37;;;;;;;6.45;2.70;;;;;;;21.68;47.38;96639.06;4994978;28;20030;-63
2022/04/28 09:22:09;;;;;;;4.93;2.72;;;;;;;21.65;44.74;96634.00;4993704;28;20023;-63
2022/04/28 09:24:44;;;;;;;7.57;2.97;;;;;;;21.92;47.55;96643.38;4994728;28;20503;-66
2022/04/28 09:27:10;;;;;;;7.55;2.70;;;;;;;22.00;45.40;96644.56;4994794;28;20106;-66
2022/04/28 09:29:39;;;;;;;3.97;2.45;;;;;;;22.21;44.83;96632.09;4994731;28;20026;-64
2022/04/28 09:32:13;;;;;;;3.42;2.20;;;;;;;22.40;47.69;96637.69;4977273;28;20516;-65
2022/04/28 09:34:47;;;;;;;7.60;2.70;;;;;;;22.31;45.49;96637.47;4994547;28;20054;-62
2022/04/28 09:37:20;;;;;;;5.20;2.45;;;;;;;22.27;44.12;96628.06;4994511;28;20026;-64
2022/04/28 09:42:39;;;;;;;4.25;2.50;;;;;;;21.49;44.49;96634.38;4994268;28;20069;-66
2022/04/28 09:45:06;;;;;;;8.30;2.67;;;;;;;21.36;46.63;96642.53;4977377;28;20034;-66
2022/04/28 09:47:32;;;;;;;7.15;2.90;;;;;;;21.12;47.00;96632.88;4994304;28;20572;-65
2022/04/28 09:49:58;;;;;;;2.60;2.35;;;;;;;20.92;47.52;96637.97;4994222;28;20394;-65
2022/04/28 09:52:24;;;;;;;6.25;3.53;;;;;;;20.95;48.14;96624.44;4994270;28;20037;-64
2022/04/28 09:54:55;;;;;;;6.55;2.78;;;;;;;20.98;46.92;96628.66;4994269;28;20038;-64
2022/04/28 09:57:22;;;;;;;5.90;2.58;;;;;;;20.80;47.72;96630.94;4994220;28;20053;-64
2022/04/28 09:59:49;;;;;;;5.30;3.10;;;;;;;20.53;48.49;96640.09;4994299;28;20084;-65
2022/04/28 10:02:20;;;;;;;3.13;2.75;;;;;;;20.42;49.39;96638.25;4993945;28;20038;-63
2022/04/28 10:04:47;;;;;;;8.20;3.00;;;;;;;20.60;48.41;96632.47;4994191;28;20033;-63
2022/04/28 10:07:14;;;;;;;5.50;2.70;;;;;;;20.44;47.61;96633.69;4994067;28;20034;-65
2022/04/28 10:09:48;;;;;;;6.55;2.58;;;;;;;20.52;47.58;96627.75;4994011;28;20035;-64
2022/04/28 10:12:24;;;;;;;3.80;2.70;;;;;;;20.43;47.77;96626.66;4994143;28;20038;-63
2022/04/28 10:14:50;;;;;;;9.38;3.25;;;;;;;20.37;47.48;96630.63;4994110;28;20026;-64
2022/04/28 10:17:27;;;;;;;4.15;2.90;;;;;;;20.31;49.08;96633.75;4993964;28;20022;-63
2022/04/28 10:19:58;;;;;;;4.10;3.13;;;;;;;20.19;49.91;96625.78;4993926;28;20056;-62
2022/04/28 10:22:31;;;;;;;9.23;3.38;;;;;;;20.18;50.72;96623.22;4993689;28;20023;-64
2022/04/28 10:33:19;;;;;;;4.07;3.20;;;;;;;20.39;49.82;96617.25;4993729;28;20045;-61
2022/04/28 10:35:55;;;;;;;5.72;3.03;;;;;;;20.46;48.41;96615.78;4993738;28;20039;-63
2022/04/28 10:38:26;;;;;;;5.13;3.03;;;;;;;20.59;48.03;96610.41;4993626;28;20026;-65
2022/04/28 10:40:59;;;;;;;4.45;2.60;;;;;;;21.01;49.73;96614.28;4993302;28;20073;-65
2022/04/28 10:43:34;;;;;;;6.93;3.05;;;;;;;21.19;48.70;96607.47;4993551;28;20038;-63
2022/04/28 10:46:08;;;;;;;9.27;2.97;;;;;;;21.49;50.30;96601.63;4993540;28;20050;-61
2022/04/28 10:48:44;;;;;;;4.40;2.63;;;;;;;21.23;46.09;96605.44;4993594;28;20053;-64
2022/04/28 10:51:25;;;;;;;6.15;3.00;;;;;;;21.38;45.82;96610.47;4993532;28;20493;-65
2022/04/28 10:54:07;;;;;;;6.95;2.70;;;;;;;21.20;46.38;96609.16;4993654;28;20112;-62
2022/04/28 10:56:42;;;;;;;3.90;2.67;;;;;;;21.02;47.15;96608.84;4993348;28;20029;-65
2022/04/28 10:59:34;;;;;;;6.55;2.72;;;;;;;20.75;48.36;96610.03;4993592;28;20069;-67
2022/04/28 11:02:15;;;;;;;3.97;2.30;;;;;;;20.64;46.26;96602.91;4993359;28;20397;-67
2022/04/28 11:05:23;;;;;;;6.85;3.03;;;;;;;20.62;48.62;96607.47;4993470;28;20500;-63
2022/04/28 11:07:49;;;;;;;7.05;2.58;;;;;;;20.73;48.70;96603.13;4993219;28;20105;-65
2022/04/28 11:10:15;;;;;;;7.00;2.30;;;;;;;20.99;46.75;96613.56;4975902;28;20148;-65
2022/04/28 11:12:43;;;;;;;7.25;3.20;;;;;;;20.69;46.26;96605.19;4993268;28;20022;-66
2022/04/28 11:15:14;;;;;;;5.85;2.70;;;;;;;20.67;47.49;96607.97;4993276;28;20026;-65
2022/04/28 11:17:44;;;;;;;3.28;2.30;;;;;;;20.66;47.11;96608.94;4993348;28;20030;-63
2022/04/28 11:20:14;;;;;;;5.40;2.65;;;;;;;20.78;46.71;96606.28;4993293;28;20042;-65
2022/04/28 11:22:45;;;;;;;8.43;2.58;;;;;;;21.02;46.74;96618.63;4993214;28;20030;-65
2022/04/28 11:25:16;;;;;;;6.05;2.30;;;;;;;21.12;44.75;96608.09;4993159;28;20030;-66
2022/04/28 11:27:44;;;;;;;4.55;2.60;;;;;;;21.14;44.61;96600.84;4993332;28;20030;-63
2022/04/28 11:30:16;;;;;;;2.92;1.92;;;;;;;21.04;45.27;96595.44;4993235;28;20030;-66
2022/04/28 11:32:52;;;;;;;4.50;2.35;;;;;;;21.10;45.70;96602.06;4993325;28;20110;-64
2022/04/28 11:35:19;;;;;;;7.28;2.05;;;;;;;21.01;44.96;96611.63;4993183;28;20392;-63
2022/04/28 11:37:48;;;;;;;2.63;1.92;;;;;;;21.07;45.39;96598.69;4992940;28;20025;-66
2022/04/28 11:40:14;;;;;;;3.30;2.03;;;;;;;21.28;44.64;96597.09;4993015;28;20034;-66
2022/04/28 11:42:45;;;;;;;4.38;2.10;;;;;;;21.36;43.15;96596.44;4992768;28;20492;-67
2022/04/28 11:45:11;;;;;;;5.53;1.90;;;;;;;21.29;43.99;96602.28;4995206;28;20138;-65
2022/04/28 11:47:45;;;;;;;5.82;2.30;;;;;;;21.13;44.28;96602.66;4996635;28;20030;-63
2022/04/28 11:50:23;;;;;;;5.47;1.90;;;;;;;21.28;45.33;96595.25;4996405;28;20389;-63
2022/04/28 11:53:06;;;;;;;7.00;2.08;;;;;;;21.46;44.08;96581.41;4996453;28;20018;-66
2022/04/28 11:55:35;;;;;;;5.13;2.15;;;;;;;21.56;44.39;96587.69;4996436;28;20038;-65
2022/04/28 11:58:01;;;;;;;5.25;1.92;;;;;;;21.45;45.47;96588.56;4996364;28;20105;-65
2022/04/28 12:00:27;;;;;;;3.55;2.20;;;;;;;21.33;45.77;96590.41;4996469;28;20120;-63
2022/04/28 12:02:54;;;;;;;2.22;1.83;;;;;;;21.14;46.13;96590.22;4996186;28;20039;-64
2022/04/28 12:05:22;;;;;;;6.75;2.28;;;;;;;20.95;44.88;96594.38;4996257;28;20393;-63
2022/04/28 12:07:52;;;;;;;4.10;1.98;;;;;;;20.79;45.21;96587.56;4996208;28;20018;-63